Willard, Colorado
Current Conditions -  °F | °C
As of 11:30 AM on Monday 26 Jan 2015 (Local Time) from KSTK Reporting Station
Clear Clear  
Wind Chill: 61°   Ceiling: Unl
Heat Index: 61°   Visibility: 10mi
Dew Point: 39°   Wind: 6mph
Humidity: 45%   Direction: 190°S
Pressure: 30.19"   Gusts: NA
Location:  40.5426°N, 103.449°W
Report Text: KSTK 261830Z AUTO 19005KT 10SM CLR 16/04 A3019 RMK AO2
Loading
Personal Weather Stations






























Interactive Weather Map New forecast layout! Learn more

10-Day Weather Forecast

Advertisements
Track Severe Weather on mobile